sensor_id;sensor_type;location;lat;lon;timestamp;temperature;humidity
19898;DHT22;10111;50.814;4.572;2023-06-10T00:00:13;18.30;99.90
19898;DHT22;10111;50.814;4.572;2023-06-10T00:02:41;18.30;99.90
19898;DHT22;10111;50.814;4.572;2023-06-10T00:05:07;18.20;99.90
19898;DHT22;10111;50.814;4.572;2023-06-10T00:07:35;18.20;99.90
19898;DHT22;10111;50.814;4.572;2023-06-10T00:10:05;18.20;99.90
19898;DHT22;10111;50.814;4.572;2023-06-10T00:12:32;18.20;99.90
19898;DHT22;10111;50.814;4.572;2023-06-10T00:15:06;18.10;99.90
19898;DHT22;10111;50.814;4.572;2023-06-10T00:17:32;18.00;99.90
19898;DHT22;10111;50.814;4.572;2023-06-10T00:19:58;18.00;99.90
19898;DHT22;10111;50.814;4.572;2023-06-10T00:22:24;17.90;99.90
19898;DHT22;10111;50.814;4.572;2023-06-10T00:24:55;17.80;99.90
19898;DHT22;10111;50.814;4.572;2023-06-10T00:27:21;17.80;99.90
19898;DHT22;10111;50.814;4.572;2023-06-10T00:29:47;17.80;99.90
19898;DHT22;10111;50.814;4.572;2023-06-10T00:32:13;17.70;99.90
19898;DHT22;10111;50.814;4.572;2023-06-10T00:34:38;17.70;99.90
19898;DHT22;10111;50.814;4.572;2023-06-10T00:37:04;17.70;99.90
19898;DHT22;10111;50.814;4.572;2023-06-10T00:39:30;17.70;99.90
19898;DHT22;10111;50.814;4.572;2023-06-10T00:41:55;17.60;99.90
19898;DHT22;10111;50.814;4.572;2023-06-10T00:44:21;17.60;99.90
19898;DHT22;10111;50.814;4.572;2023-06-10T00:46:47;17.60;99.90
19898;DHT22;10111;50.814;4.572;2023-06-10T00:49:13;17.60;99.90
19898;DHT22;10111;50.814;4.572;2023-06-10T00:51:39;17.60;99.90
19898;DHT22;10111;50.814;4.572;2023-06-10T00:54:05;17.50;99.90
19898;DHT22;10111;50.814;4.572;2023-06-10T00:56:33;17.50;99.90
19898;DHT22;10111;50.814;4.572;2023-06-10T00:59:00;17.50;99.90
19898;DHT22;10111;50.814;4.572;2023-06-10T01:01:26;17.50;99.90
19898;DHT22;10111;50.814;4.572;2023-06-10T01:03:52;17.40;99.90
19898;DHT22;10111;50.814;4.572;2023-06-10T01:11:43;17.40;99.90
19898;DHT22;10111;50.814;4.572;2023-06-10T01:14:13;17.40;99.90
19898;DHT22;10111;50.814;4.572;2023-06-10T01:16:39;17.30;99.90
19898;DHT22;10111;50.814;4.572;2023-06-10T01:19:06;17.30;99.90
19898;DHT22;10111;50.814;4.572;2023-06-10T01:21:33;17.30;99.90
19898;DHT22;10111;50.814;4.572;2023-06-10T01:23:58;17.30;99.90
19898;DHT22;10111;50.814;4.572;2023-06-10T01:26:30;17.30;99.90
19898;DHT22;10111;50.814;4.572;2023-06-10T01:29:05;17.20;99.90
19898;DHT22;10111;50.814;4.572;2023-06-10T01:31:43;17.30;99.90
19898;DHT22;10111;50.814;4.572;2023-06-10T01:34:16;17.30;99.90
19898;DHT22;10111;50.814;4.572;2023-06-10T01:36:46;17.20;99.90
19898;DHT22;10111;50.814;4.572;2023-06-10T01:39:17;17.20;99.90
19898;DHT22;10111;50.814;4.572;2023-06-10T01:41:44;17.20;99.90
19898;DHT22;10111;50.814;4.572;2023-06-10T01:44:10;17.20;99.90
19898;DHT22;10111;50.814;4.572;2023-06-10T01:46:36;17.10;99.90
19898;DHT22;10111;50.814;4.572;2023-06-10T01:49:02;17.10;99.90
19898;DHT22;10111;50.814;4.572;2023-06-10T01:51:27;17.10;99.90
19898;DHT22;10111;50.814;4.572;2023-06-10T01:53:53;17.00;99.90
19898;DHT22;10111;50.814;4.572;2023-06-10T01:56:19;17.00;99.90
19898;DHT22;10111;50.814;4.572;2023-06-10T01:58:46;17.00;99.90
19898;DHT22;10111;50.814;4.572;2023-06-10T02:01:11;17.00;99.90
19898;DHT22;10111;50.814;4.572;2023-06-10T02:03:37;16.90;99.90
19898;DHT22;10111;50.814;4.572;2023-06-10T02:06:03;16.90;99.90
19898;DHT22;10111;50.814;4.572;2023-06-10T02:08:29;16.90;99.90
19898;DHT22;10111;50.814;4.572;2023-06-10T02:10:54;16.90;99.90
19898;DHT22;10111;50.814;4.572;2023-06-10T02:13:20;16.90;99.90
19898;DHT22;10111;50.814;4.572;2023-06-10T02:15:46;16.80;99.90
19898;DHT22;10111;50.814;4.572;2023-06-10T02:18:11;16.80;99.90
19898;DHT22;10111;50.814;4.572;2023-06-10T02:20:38;16.80;99.90
19898;DHT22;10111;50.814;4.572;2023-06-10T02:23:03;16.80;99.90
19898;DHT22;10111;50.814;4.572;2023-06-10T02:25:29;16.80;99.90
19898;DHT22;10111;50.814;4.572;2023-06-10T02:27:55;16.70;99.90
19898;DHT22;10111;50.814;4.572;2023-06-10T02:30:21;16.70;99.90
19898;DHT22;10111;50.814;4.572;2023-06-10T02:32:47;16.60;99.90
19898;DHT22;10111;50.814;4.572;2023-06-10T02:35:16;16.60;99.90
19898;DHT22;10111;50.814;4.572;2023-06-10T02:37:43;16.60;99.90
19898;DHT22;10111;50.814;4.572;2023-06-10T02:40:09;16.60;99.90
19898;DHT22;10111;50.814;4.572;2023-06-10T02:42:36;16.50;99.90
19898;DHT22;10111;50.814;4.572;2023-06-10T02:45:02;16.50;99.90
19898;DHT22;10111;50.814;4.572;2023-06-10T02:47:28;16.50;99.90
19898;DHT22;10111;50.814;4.572;2023-06-10T02:49:53;16.50;99.90
19898;DHT22;10111;50.814;4.572;2023-06-10T02:52:19;16.50;99.90
19898;DHT22;10111;50.814;4.572;2023-06-10T02:54:46;16.50;99.90
19898;DHT22;10111;50.814;4.572;2023-06-10T02:57:11;16.50;99.90
19898;DHT22;10111;50.814;4.572;2023-06-10T02:59:37;16.50;99.90
19898;DHT22;10111;50.814;4.572;2023-06-10T03:02:03;16.50;99.90
19898;DHT22;10111;50.814;4.572;2023-06-10T03:04:29;16.40;99.90
19898;DHT22;10111;50.814;4.572;2023-06-10T03:06:56;16.40;99.90
19898;DHT22;10111;50.814;4.572;2023-06-10T03:09:21;16.30;99.90
19898;DHT22;10111;50.814;4.572;2023-06-10T03:11:47;16.20;99.90
19898;DHT22;10111;50.814;4.572;2023-06-10T03:14:12;16.20;99.90
19898;DHT22;10111;50.814;4.572;2023-06-10T03:16:38;16.20;99.90
19898;DHT22;10111;50.814;4.572;2023-06-10T03:19:08;16.20;99.90
19898;DHT22;10111;50.814;4.572;2023-06-10T03:21:34;16.20;99.90
19898;DHT22;10111;50.814;4.572;2023-06-10T03:24:00;16.20;99.90
19898;DHT22;10111;50.814;4.572;2023-06-10T03:26:26;16.20;99.90
19898;DHT22;10111;50.814;4.572;2023-06-10T03:28:53;16.20;99.90
19898;DHT22;10111;50.814;4.572;2023-06-10T03:31:18;16.10;99.90
19898;DHT22;10111;50.814;4.572;2023-06-10T03:33:44;16.10;99.90
19898;DHT22;10111;50.814;4.572;2023-06-10T03:36:10;16.10;99.90
19898;DHT22;10111;50.814;4.572;2023-06-10T03:38:36;16.00;99.90
19898;DHT22;10111;50.814;4.572;2023-06-10T03:41:02;16.00;99.90
19898;DHT22;10111;50.814;4.572;2023-06-10T03:43:28;16.00;99.90
19898;DHT22;10111;50.814;4.572;2023-06-10T03:45:53;16.00;99.90
19898;DHT22;10111;50.814;4.572;2023-06-10T03:48:19;16.00;99.90
19898;DHT22;10111;50.814;4.572;2023-06-10T03:50:45;16.00;99.90
19898;DHT22;10111;50.814;4.572;2023-06-10T03:53:12;16.00;99.90
19898;DHT22;10111;50.814;4.572;2023-06-10T03:55:38;16.00;99.90
19898;DHT22;10111;50.814;4.572;2023-06-10T03:58:04;16.00;99.90
19898;DHT22;10111;50.814;4.572;2023-06-10T04:00:30;16.00;99.90
19898;DHT22;10111;50.814;4.572;2023-06-10T04:02:56;16.00;99.90
19898;DHT22;10111;50.814;4.572;2023-06-10T04:05:23;16.00;99.90
19898;DHT22;10111;50.814;4.572;2023-06-10T04:07:49;16.10;99.90
19898;DHT22;10111;50.814;4.572;2023-06-10T04:10:15;16.10;99.90
19898;DHT22;10111;50.814;4.572;2023-06-10T04:12:41;16.10;99.90
19898;DHT22;10111;50.814;4.572;2023-06-10T04:15:07;16.10;99.90
19898;DHT22;10111;50.814;4.572;2023-06-10T04:17:33;16.10;99.90
19898;DHT22;10111;50.814;4.572;2023-06-10T04:19:59;16.10;99.90
19898;DHT22;10111;50.814;4.572;2023-06-10T04:22:26;16.10;99.90
19898;DHT22;10111;50.814;4.572;2023-06-10T04:24:52;16.20;99.90
19898;DHT22;10111;50.814;4.572;2023-06-10T04:27:18;16.20;99.90
19898;DHT22;10111;50.814;4.572;2023-06-10T04:29:44;16.20;99.90
19898;DHT22;10111;50.814;4.572;2023-06-10T04:32:09;16.30;99.90
19898;DHT22;10111;50.814;4.572;2023-06-10T04:34:36;16.40;99.90
19898;DHT22;10111;50.814;4.572;2023-06-10T04:37:04;16.50;99.90
19898;DHT22;10111;50.814;4.572;2023-06-10T04:39:30;16.50;99.90
19898;DHT22;10111;50.814;4.572;2023-06-10T04:41:56;16.60;99.90
19898;DHT22;10111;50.814;4.572;2023-06-10T04:44:21;16.70;99.90
19898;DHT22;10111;50.814;4.572;2023-06-10T04:46:47;16.90;99.90
19898;DHT22;10111;50.814;4.572;2023-06-10T04:49:13;17.00;99.90
19898;DHT22;10111;50.814;4.572;2023-06-10T04:51:40;17.10;99.90
19898;DHT22;10111;50.814;4.572;2023-06-10T04:54:05;17.20;99.90
19898;DHT22;10111;50.814;4.572;2023-06-10T04:56:32;17.20;99.90
19898;DHT22;10111;50.814;4.572;2023-06-10T04:58:57;17.40;99.90
19898;DHT22;10111;50.814;4.572;2023-06-10T05:01:23;17.50;99.90
19898;DHT22;10111;50.814;4.572;2023-06-10T05:03:49;17.70;99.90
19898;DHT22;10111;50.814;4.572;2023-06-10T05:06:15;17.80;99.90
19898;DHT22;10111;50.814;4.572;2023-06-10T05:08:41;18.00;99.90
19898;DHT22;10111;50.814;4.572;2023-06-10T05:11:06;18.20;99.90
19898;DHT22;10111;50.814;4.572;2023-06-10T05:26:28;18.50;99.90
19898;DHT22;10111;50.814;4.572;2023-06-10T05:28:57;19.90;99.90
19898;DHT22;10111;50.814;4.572;2023-06-10T05:31:22;20.10;99.90
19898;DHT22;10111;50.814;4.572;2023-06-10T05:33:48;20.20;99.90
19898;DHT22;10111;50.814;4.572;2023-06-10T05:36:13;20.40;99.90
19898;DHT22;10111;50.814;4.572;2023-06-10T05:38:39;20.50;99.90
19898;DHT22;10111;50.814;4.572;2023-06-10T05:41:05;20.70;99.90
19898;DHT22;10111;50.814;4.572;2023-06-10T05:43:30;20.70;99.90
19898;DHT22;10111;50.814;4.572;2023-06-10T05:45:56;20.90;99.90
19898;DHT22;10111;50.814;4.572;2023-06-10T05:48:22;21.00;99.90
19898;DHT22;10111;50.814;4.572;2023-06-10T05:50:47;21.20;99.90
19898;DHT22;10111;50.814;4.572;2023-06-10T05:53:16;21.30;99.90
19898;DHT22;10111;50.814;4.572;2023-06-10T05:55:43;21.40;99.90
19898;DHT22;10111;50.814;4.572;2023-06-10T05:58:10;21.50;99.90
19898;DHT22;10111;50.814;4.572;2023-06-10T06:00:38;21.80;99.90
19898;DHT22;10111;50.814;4.572;2023-06-10T06:03:05;22.00;99.90
19898;DHT22;10111;50.814;4.572;2023-06-10T06:05:31;22.20;99.90
19898;DHT22;10111;50.814;4.572;2023-06-10T06:08:10;22.40;99.90
19898;DHT22;10111;50.814;4.572;2023-06-10T06:10:36;22.40;99.90
19898;DHT22;10111;50.814;4.572;2023-06-10T06:13:02;22.40;99.90
19898;DHT22;10111;50.814;4.572;2023-06-10T06:15:27;22.50;99.90
19898;DHT22;10111;50.814;4.572;2023-06-10T06:17:53;22.70;99.90
19898;DHT22;10111;50.814;4.572;2023-06-10T06:20:20;22.70;99.90
19898;DHT22;10111;50.814;4.572;2023-06-10T06:22:46;22.70;99.90
19898;DHT22;10111;50.814;4.572;2023-06-10T06:25:12;22.90;99.90
19898;DHT22;10111;50.814;4.572;2023-06-10T06:27:37;23.10;99.90
19898;DHT22;10111;50.814;4.572;2023-06-10T06:30:04;23.30;99.90
19898;DHT22;10111;50.814;4.572;2023-06-10T06:32:29;23.50;99.90
19898;DHT22;10111;50.814;4.572;2023-06-10T06:34:55;23.50;99.90
19898;DHT22;10111;50.814;4.572;2023-06-10T06:37:22;23.50;99.90
19898;DHT22;10111;50.814;4.572;2023-06-10T06:39:48;23.50;99.90
19898;DHT22;10111;50.814;4.572;2023-06-10T06:42:14;23.60;99.90
19898;DHT22;10111;50.814;4.572;2023-06-10T06:44:39;23.70;99.90
19898;DHT22;10111;50.814;4.572;2023-06-10T06:47:05;23.80;99.90
19898;DHT22;10111;50.814;4.572;2023-06-10T06:49:31;24.00;99.90
19898;DHT22;10111;50.814;4.572;2023-06-10T06:51:56;24.00;99.90
19898;DHT22;10111;50.814;4.572;2023-06-10T06:54:22;24.00;99.90
19898;DHT22;10111;50.814;4.572;2023-06-10T06:56:48;24.00;99.90
19898;DHT22;10111;50.814;4.572;2023-06-10T06:59:13;24.30;99.90
19898;DHT22;10111;50.814;4.572;2023-06-10T07:01:39;24.50;99.90
19898;DHT22;10111;50.814;4.572;2023-06-10T07:04:05;24.40;99.90
19898;DHT22;10111;50.814;4.572;2023-06-10T07:06:30;24.60;99.90
19898;DHT22;10111;50.814;4.572;2023-06-10T07:08:57;24.80;99.90
19898;DHT22;10111;50.814;4.572;2023-06-10T07:11:23;24.90;99.90
19898;DHT22;10111;50.814;4.572;2023-06-10T07:13:48;25.20;99.90
19898;DHT22;10111;50.814;4.572;2023-06-10T07:16:14;25.50;99.90
19898;DHT22;10111;50.814;4.572;2023-06-10T07:18:39;25.50;99.90
19898;DHT22;10111;50.814;4.572;2023-06-10T07:21:05;25.70;99.90
19898;DHT22;10111;50.814;4.572;2023-06-10T07:23:31;25.80;99.90
19898;DHT22;10111;50.814;4.572;2023-06-10T07:25:56;25.90;99.90
19898;DHT22;10111;50.814;4.572;2023-06-10T07:28:22;25.90;99.90
19898;DHT22;10111;50.814;4.572;2023-06-10T07:30:48;26.10;99.90
19898;DHT22;10111;50.814;4.572;2023-06-10T07:33:13;26.10;99.90
19898;DHT22;10111;50.814;4.572;2023-06-10T07:35:39;26.10;99.90
19898;DHT22;10111;50.814;4.572;2023-06-10T07:38:04;26.20;99.90
19898;DHT22;10111;50.814;4.572;2023-06-10T07:40:30;26.50;99.90
19898;DHT22;10111;50.814;4.572;2023-06-10T07:42:56;26.50;99.90
19898;DHT22;10111;50.814;4.572;2023-06-10T07:45:21;26.70;99.90
19898;DHT22;10111;50.814;4.572;2023-06-10T07:47:47;27.00;99.90
19898;DHT22;10111;50.814;4.572;2023-06-10T07:50:13;27.10;99.90
19898;DHT22;10111;50.814;4.572;2023-06-10T07:52:38;27.10;99.90
19898;DHT22;10111;50.814;4.572;2023-06-10T07:55:04;27.20;99.90
19898;DHT22;10111;50.814;4.572;2023-06-10T07:57:30;27.20;99.90
19898;DHT22;10111;50.814;4.572;2023-06-10T08:00:00;27.10;99.90
19898;DHT22;10111;50.814;4.572;2023-06-10T08:02:27;27.00;99.90
19898;DHT22;10111;50.814;4.572;2023-06-10T08:04:52;27.20;99.90
19898;DHT22;10111;50.814;4.572;2023-06-10T08:07:18;27.30;99.90
19898;DHT22;10111;50.814;4.572;2023-06-10T08:09:44;27.30;99.90
19898;DHT22;10111;50.814;4.572;2023-06-10T08:12:10;27.50;99.90
19898;DHT22;10111;50.814;4.572;2023-06-10T08:14:35;27.70;99.90
19898;DHT22;10111;50.814;4.572;2023-06-10T08:17:03;27.60;99.90
19898;DHT22;10111;50.814;4.572;2023-06-10T08:19:30;27.70;99.90
19898;DHT22;10111;50.814;4.572;2023-06-10T08:21:56;27.90;99.90
19898;DHT22;10111;50.814;4.572;2023-06-10T08:24:22;28.20;99.90
19898;DHT22;10111;50.814;4.572;2023-06-10T08:26:47;28.50;99.90
19898;DHT22;10111;50.814;4.572;2023-06-10T08:29:13;28.70;99.90
19898;DHT22;10111;50.814;4.572;2023-06-10T08:31:43;28.90;99.90
19898;DHT22;10111;50.814;4.572;2023-06-10T08:34:09;29.00;99.90
19898;DHT22;10111;50.814;4.572;2023-06-10T08:36:35;28.90;99.90
19898;DHT22;10111;50.814;4.572;2023-06-10T08:39:01;28.80;99.90
19898;DHT22;10111;50.814;4.572;2023-06-10T08:41:28;29.00;99.90
19898;DHT22;10111;50.814;4.572;2023-06-10T08:44:24;29.30;99.90
19898;DHT22;10111;50.814;4.572;2023-06-10T08:46:53;29.50;99.90
19898;DHT22;10111;50.814;4.572;2023-06-10T08:49:22;29.70;99.90
19898;DHT22;10111;50.814;4.572;2023-06-10T08:51:55;29.60;99.90
19898;DHT22;10111;50.814;4.572;2023-06-10T08:54:25;29.40;99.90
19898;DHT22;10111;50.814;4.572;2023-06-10T08:56:54;29.20;99.90
19898;DHT22;10111;50.814;4.572;2023-06-10T08:59:21;29.40;99.90
19898;DHT22;10111;50.814;4.572;2023-06-10T09:01:47;29.70;99.90
19898;DHT22;10111;50.814;4.572;2023-06-10T09:04:14;29.90;99.90
19898;DHT22;10111;50.814;4.572;2023-06-10T09:06:40;30.00;99.90
19898;DHT22;10111;50.814;4.572;2023-06-10T09:09:07;30.00;99.90
19898;DHT22;10111;50.814;4.572;2023-06-10T09:11:33;30.10;99.90
19898;DHT22;10111;50.814;4.572;2023-06-10T09:13:59;30.30;99.90
19898;DHT22;10111;50.814;4.572;2023-06-10T09:16:25;30.50;99.90
19898;DHT22;10111;50.814;4.572;2023-06-10T09:18:51;30.60;99.90
19898;DHT22;10111;50.814;4.572;2023-06-10T09:21:23;30.30;99.90
19898;DHT22;10111;50.814;4.572;2023-06-10T09:23:49;30.10;99.90
19898;DHT22;10111;50.814;4.572;2023-06-10T09:26:15;29.90;99.90
19898;DHT22;10111;50.814;4.572;2023-06-10T09:28:48;30.20;99.90
19898;DHT22;10111;50.814;4.572;2023-06-10T09:31:16;30.50;99.90
19898;DHT22;10111;50.814;4.572;2023-06-10T09:33:44;30.80;99.90
19898;DHT22;10111;50.814;4.572;2023-06-10T09:36:10;30.60;99.90
19898;DHT22;10111;50.814;4.572;2023-06-10T09:38:37;30.60;99.90
19898;DHT22;10111;50.814;4.572;2023-06-10T09:41:03;30.80;99.90
19898;DHT22;10111;50.814;4.572;2023-06-10T09:43:45;30.60;99.90
19898;DHT22;10111;50.814;4.572;2023-06-10T09:46:18;30.30;99.90
19898;DHT22;10111;50.814;4.572;2023-06-10T09:48:46;30.30;99.90
19898;DHT22;10111;50.814;4.572;2023-06-10T09:51:13;30.40;99.90
19898;DHT22;10111;50.814;4.572;2023-06-10T09:53:39;30.30;99.90
19898;DHT22;10111;50.814;4.572;2023-06-10T09:56:06;30.30;99.90
19898;DHT22;10111;50.814;4.572;2023-06-10T09:58:36;30.40;99.90
19898;DHT22;10111;50.814;4.572;2023-06-10T10:01:09;30.50;99.90
19898;DHT22;10111;50.814;4.572;2023-06-10T10:03:51;30.70;99.90
19898;DHT22;10111;50.814;4.572;2023-06-10T10:06:18;30.60;99.70
19898;DHT22;10111;50.814;4.572;2023-06-10T10:08:48;30.60;99.90
19898;DHT22;10111;50.814;4.572;2023-06-10T10:11:17;30.00;98.70
19898;DHT22;10111;50.814;4.572;2023-06-10T10:13:45;29.50;99.40
19898;DHT22;10111;50.814;4.572;2023-06-10T10:16:30;29.40;99.90
19898;DHT22;10111;50.814;4.572;2023-06-10T10:19:04;29.70;99.90
19898;DHT22;10111;50.814;4.572;2023-06-10T10:21:37;29.70;99.90
19898;DHT22;10111;50.814;4.572;2023-06-10T10:24:09;29.60;99.90
19898;DHT22;10111;50.814;4.572;2023-06-10T10:26:38;29.70;99.90
19898;DHT22;10111;50.814;4.572;2023-06-10T10:29:22;29.50;99.80
19898;DHT22;10111;50.814;4.572;2023-06-10T10:31:51;29.50;99.20
19898;DHT22;10111;50.814;4.572;2023-06-10T10:34:32;29.60;99.50
19898;DHT22;10111;50.814;4.572;2023-06-10T10:37:01;29.60;98.10
19898;DHT22;10111;50.814;4.572;2023-06-10T10:39:27;29.60;98.20
19898;DHT22;10111;50.814;4.572;2023-06-10T10:41:55;29.70;97.70
19898;DHT22;10111;50.814;4.572;2023-06-10T10:44:21;29.60;98.20
19898;DHT22;10111;50.814;4.572;2023-06-10T10:46:50;29.80;98.50
19898;DHT22;10111;50.814;4.572;2023-06-10T10:49:18;29.90;99.00
19898;DHT22;10111;50.814;4.572;2023-06-10T10:52:00;29.90;99.10
19898;DHT22;10111;50.814;4.572;2023-06-10T10:54:35;29.90;99.90
19898;DHT22;10111;50.814;4.572;2023-06-10T10:57:10;29.90;98.20
19898;DHT22;10111;50.814;4.572;2023-06-10T10:59:55;29.70;97.80
19898;DHT22;10111;50.814;4.572;2023-06-10T11:02:42;29.60;98.70
19898;DHT22;10111;50.814;4.572;2023-06-10T11:05:15;29.40;97.50
19898;DHT22;10111;50.814;4.572;2023-06-10T11:07:55;29.30;96.60
19898;DHT22;10111;50.814;4.572;2023-06-10T11:10:31;29.30;96.70
19898;DHT22;10111;50.814;4.572;2023-06-10T11:12:57;29.50;96.90
19898;DHT22;10111;50.814;4.572;2023-06-10T11:15:25;29.60;96.50
19898;DHT22;10111;50.814;4.572;2023-06-10T11:23:32;29.90;93.60
19898;DHT22;10111;50.814;4.572;2023-06-10T11:31:20;29.70;97.20
19898;DHT22;10111;50.814;4.572;2023-06-10T11:33:56;29.80;94.60
19898;DHT22;10111;50.814;4.572;2023-06-10T11:36:23;29.80;94.90
19898;DHT22;10111;50.814;4.572;2023-06-10T11:38:56;29.80;94.10
19898;DHT22;10111;50.814;4.572;2023-06-10T11:41:24;29.70;94.90
19898;DHT22;10111;50.814;4.572;2023-06-10T11:43:54;29.70;91.00
19898;DHT22;10111;50.814;4.572;2023-06-10T11:46:22;29.40;90.30
19898;DHT22;10111;50.814;4.572;2023-06-10T11:48:51;29.20;91.90
19898;DHT22;10111;50.814;4.572;2023-06-10T11:51:17;29.20;93.10
19898;DHT22;10111;50.814;4.572;2023-06-10T11:53:45;29.20;91.20
19898;DHT22;10111;50.814;4.572;2023-06-10T11:56:10;29.30;92.20
19898;DHT22;10111;50.814;4.572;2023-06-10T11:58:36;29.50;93.90
19898;DHT22;10111;50.814;4.572;2023-06-10T12:01:02;29.60;92.50
19898;DHT22;10111;50.814;4.572;2023-06-10T12:03:38;29.80;92.30
19898;DHT22;10111;50.814;4.572;2023-06-10T12:06:05;30.00;92.30
19898;DHT22;10111;50.814;4.572;2023-06-10T12:08:32;30.10;93.60
19898;DHT22;10111;50.814;4.572;2023-06-10T12:10:59;30.20;93.10
19898;DHT22;10111;50.814;4.572;2023-06-10T12:13:27;30.30;91.10
19898;DHT22;10111;50.814;4.572;2023-06-10T12:15:53;30.40;91.20
19898;DHT22;10111;50.814;4.572;2023-06-10T12:18:23;30.30;91.80
19898;DHT22;10111;50.814;4.572;2023-06-10T12:20:49;30.40;90.80
19898;DHT22;10111;50.814;4.572;2023-06-10T12:23:17;30.50;92.50
19898;DHT22;10111;50.814;4.572;2023-06-10T12:25:53;30.40;92.20
19898;DHT22;10111;50.814;4.572;2023-06-10T12:28:24;30.20;90.00
19898;DHT22;10111;50.814;4.572;2023-06-10T12:30:50;29.90;93.10
19898;DHT22;10111;50.814;4.572;2023-06-10T12:33:17;29.90;90.80
19898;DHT22;10111;50.814;4.572;2023-06-10T12:35:52;29.90;92.20
19898;DHT22;10111;50.814;4.572;2023-06-10T12:38:22;30.00;91.80
19898;DHT22;10111;50.814;4.572;2023-06-10T12:40:50;30.00;92.40
19898;DHT22;10111;50.814;4.572;2023-06-10T12:43:25;30.10;91.40
19898;DHT22;10111;50.814;4.572;2023-06-10T12:45:51;30.20;90.70
19898;DHT22;10111;50.814;4.572;2023-06-10T12:50:43;30.50;92.40
19898;DHT22;10111;50.814;4.572;2023-06-10T12:53:10;30.30;91.10
19898;DHT22;10111;50.814;4.572;2023-06-10T12:55:39;30.30;92.40
19898;DHT22;10111;50.814;4.572;2023-06-10T12:58:05;30.40;90.80
19898;DHT22;10111;50.814;4.572;2023-06-10T13:00:30;30.50;91.50
19898;DHT22;10111;50.814;4.572;2023-06-10T13:02:59;30.60;91.20
19898;DHT22;10111;50.814;4.572;2023-06-10T13:05:26;30.40;89.90
19898;DHT22;10111;50.814;4.572;2023-06-10T13:07:52;30.50;90.00
19898;DHT22;10111;50.814;4.572;2023-06-10T13:10:18;30.20;86.30
19898;DHT22;10111;50.814;4.572;2023-06-10T13:12:45;30.20;86.90
19898;DHT22;10111;50.814;4.572;2023-06-10T13:15:11;30.20;86.60
19898;DHT22;10111;50.814;4.572;2023-06-10T13:17:37;30.00;88.50
19898;DHT22;10111;50.814;4.572;2023-06-10T13:20:05;30.00;91.10
19898;DHT22;10111;50.814;4.572;2023-06-10T13:22:31;29.90;90.30
19898;DHT22;10111;50.814;4.572;2023-06-10T13:25:05;30.10;90.60
19898;DHT22;10111;50.814;4.572;2023-06-10T13:27:33;30.10;90.50
19898;DHT22;10111;50.814;4.572;2023-06-10T13:29:59;30.20;90.20
19898;DHT22;10111;50.814;4.572;2023-06-10T13:32:24;30.20;89.80
19898;DHT22;10111;50.814;4.572;2023-06-10T13:34:50;30.10;83.50
19898;DHT22;10111;50.814;4.572;2023-06-10T13:37:16;30.00;87.30
19898;DHT22;10111;50.814;4.572;2023-06-10T13:39:45;30.00;87.50
19898;DHT22;10111;50.814;4.572;2023-06-10T13:42:19;30.00;87.50
19898;DHT22;10111;50.814;4.572;2023-06-10T13:44:45;29.80;85.10
19898;DHT22;10111;50.814;4.572;2023-06-10T13:47:11;29.70;85.60
19898;DHT22;10111;50.814;4.572;2023-06-10T13:49:36;29.80;88.50
19898;DHT22;10111;50.814;4.572;2023-06-10T13:52:03;29.80;85.50
19898;DHT22;10111;50.814;4.572;2023-06-10T13:54:29;29.90;87.00
19898;DHT22;10111;50.814;4.572;2023-06-10T13:56:54;30.00;88.40
19898;DHT22;10111;50.814;4.572;2023-06-10T13:59:20;30.00;88.50
19898;DHT22;10111;50.814;4.572;2023-06-10T14:01:46;30.10;89.50
19898;DHT22;10111;50.814;4.572;2023-06-10T14:04:12;30.10;87.30
19898;DHT22;10111;50.814;4.572;2023-06-10T14:06:38;30.20;86.80
19898;DHT22;10111;50.814;4.572;2023-06-10T14:09:05;30.00;85.50
19898;DHT22;10111;50.814;4.572;2023-06-10T14:11:30;30.00;86.70
19898;DHT22;10111;50.814;4.572;2023-06-10T14:13:56;29.80;83.60
19898;DHT22;10111;50.814;4.572;2023-06-10T14:16:23;29.80;84.70
19898;DHT22;10111;50.814;4.572;2023-06-10T14:18:49;29.70;84.70
19898;DHT22;10111;50.814;4.572;2023-06-10T14:21:16;29.70;87.00
19898;DHT22;10111;50.814;4.572;2023-06-10T14:23:42;29.70;86.50
19898;DHT22;10111;50.814;4.572;2023-06-10T14:26:09;29.70;85.20
19898;DHT22;10111;50.814;4.572;2023-06-10T14:28:35;29.60;86.30
19898;DHT22;10111;50.814;4.572;2023-06-10T14:31:00;29.60;86.20
19898;DHT22;10111;50.814;4.572;2023-06-10T14:33:26;29.60;85.30
19898;DHT22;10111;50.814;4.572;2023-06-10T14:35:52;29.60;83.60
19898;DHT22;10111;50.814;4.572;2023-06-10T14:38:17;29.60;85.50
19898;DHT22;10111;50.814;4.572;2023-06-10T14:40:43;29.60;85.60
19898;DHT22;10111;50.814;4.572;2023-06-10T14:43:09;29.70;85.50
19898;DHT22;10111;50.814;4.572;2023-06-10T14:45:44;29.80;84.30
19898;DHT22;10111;50.814;4.572;2023-06-10T14:48:12;29.80;83.60
19898;DHT22;10111;50.814;4.572;2023-06-10T14:50:38;29.70;84.90
19898;DHT22;10111;50.814;4.572;2023-06-10T14:53:06;29.80;84.80
19898;DHT22;10111;50.814;4.572;2023-06-10T14:55:31;29.80;85.10
19898;DHT22;10111;50.814;4.572;2023-06-10T14:57:57;29.90;84.90
19898;DHT22;10111;50.814;4.572;2023-06-10T15:00:23;29.80;84.90
19898;DHT22;10111;50.814;4.572;2023-06-10T15:02:51;29.90;85.00
19898;DHT22;10111;50.814;4.572;2023-06-10T15:05:18;29.90;84.80
19898;DHT22;10111;50.814;4.572;2023-06-10T15:07:45;29.80;82.20
19898;DHT22;10111;50.814;4.572;2023-06-10T15:10:11;29.90;84.50
19898;DHT22;10111;50.814;4.572;2023-06-10T15:12:37;29.70;83.00
19898;DHT22;10111;50.814;4.572;2023-06-10T15:15:03;29.80;84.50
19898;DHT22;10111;50.814;4.572;2023-06-10T15:17:29;29.80;88.40
19898;DHT22;10111;50.814;4.572;2023-06-10T15:19:55;29.80;86.90
19898;DHT22;10111;50.814;4.572;2023-06-10T15:22:21;29.90;86.30
19898;DHT22;10111;50.814;4.572;2023-06-10T15:24:46;29.90;85.20
19898;DHT22;10111;50.814;4.572;2023-06-10T15:27:12;29.80;87.20
19898;DHT22;10111;50.814;4.572;2023-06-10T15:29:38;29.90;85.00
19898;DHT22;10111;50.814;4.572;2023-06-10T15:32:04;29.90;85.50
19898;DHT22;10111;50.814;4.572;2023-06-10T15:34:30;29.90;88.00
19898;DHT22;10111;50.814;4.572;2023-06-10T15:36:56;29.90;86.30
19898;DHT22;10111;50.814;4.572;2023-06-10T15:39:21;29.90;88.50
19898;DHT22;10111;50.814;4.572;2023-06-10T15:41:47;30.00;87.00
19898;DHT22;10111;50.814;4.572;2023-06-10T15:44:13;29.90;86.70
19898;DHT22;10111;50.814;4.572;2023-06-10T15:46:38;29.90;86.80
19898;DHT22;10111;50.814;4.572;2023-06-10T15:49:04;29.90;83.90
19898;DHT22;10111;50.814;4.572;2023-06-10T15:51:30;29.80;85.00
19898;DHT22;10111;50.814;4.572;2023-06-10T15:53:56;29.80;85.50
19898;DHT22;10111;50.814;4.572;2023-06-10T15:56:22;29.80;84.90
19898;DHT22;10111;50.814;4.572;2023-06-10T15:58:48;29.70;84.80
19898;DHT22;10111;50.814;4.572;2023-06-10T16:01:14;29.60;84.20